Time,TemperatureF,DewpointF,PressureIn,WindDirection,WindDirectionDegrees,WindSpeedMPH,WindSpeedGustMPH,Humidity,HourlyPrecipIn,Conditions,Clouds,dailyrainin,SoftwareType,DateUTC
2013-02-13 00:00:00,58.0,58.0,30.01,South,188,0.0,0.0,100,0.00,RA,FEW,0.00,WeatherDisplay:10.37,2013-02-13 06:00:00,
2013-02-13 00:05:00,58.0,58.0,30.00,South,187,0.0,0.0,100,0.00,RA,FEW,0.00,WeatherDisplay:10.37,2013-02-13 06:05:00,
2013-02-13 00:10:00,58.0,58.0,30.00,South,187,0.0,0.0,100,0.00,RA,FEW,0.00,WeatherDisplay:10.37,2013-02-13 06:10:00,
2013-02-13 00:15:00,58.0,58.0,30.00,South,189,0.0,0.0,100,0.00,,FEW,0.00,WeatherDisplay:10.37,2013-02-13 06:15:00,
2013-02-13 00:20:00,58.0,58.0,30.01,South,187,0.0,0.0,100,0.00,,FEW,0.00,WeatherDisplay:10.37,2013-02-13 06:20:00,
2013-02-13 00:25:00,57.9,57.9,30.01,South,189,0.0,0.0,100,0.00,,FEW,0.00,WeatherDisplay:10.37,2013-02-13 06:25:00,
2013-02-13 00:30:00,57.9,57.9,30.01,WNW,298,0.0,0.0,100,0.00,,FEW,0.00,WeatherDisplay:10.37,2013-02-13 06:30:00,
2013-02-13 00:35:00,57.8,57.8,30.01,WNW,298,0.0,0.0,100,0.00,,FEW,0.00,WeatherDisplay:10.37,2013-02-13 06:35:00,
2013-02-13 00:40:00,57.7,57.7,30.00,WNW,298,0.0,0.0,100,0.00,,FEW,0.00,WeatherDisplay:10.37,2013-02-13 06:40:00,
2013-02-13 00:45:00,57.6,57.6,30.00,WNW,298,0.0,0.0,100,0.00,,FEW,0.00,WeatherDisplay:10.37,2013-02-13 06:45:00,
2013-02-13 00:50:00,57.6,57.6,30.01,WNW,298,0.0,0.0,100,0.00,,FEW,0.00,WeatherDisplay:10.37,2013-02-13 06:50:00,
2013-02-13 00:55:00,57.7,57.7,30.01,WNW,298,0.0,0.0,100,0.00,,FEW,0.00,WeatherDisplay:10.37,2013-02-13 06:55:00,
2013-02-13 01:00:00,57.8,57.8,30.00,NW,313,0.0,0.0,100,0.00,,FEW,0.00,WeatherDisplay:10.37,2013-02-13 07:00:00,
2013-02-13 01:05:00,57.8,57.8,30.00,NW,313,0.0,0.0,100,0.00,,FEW,0.00,WeatherDisplay:10.37,2013-02-13 07:05:00,
2013-02-13 01:10:00,57.8,57.8,30.00,NW,313,0.0,2.3,100,0.00,,FEW,0.00,WeatherDisplay:10.37,2013-02-13 07:10:00,
2013-02-13 01:15:00,57.9,57.9,30.00,NW,313,0.0,0.0,100,0.00,,FEW,0.00,WeatherDisplay:10.37,2013-02-13 07:15:00,
2013-02-13 01:20:00,58.0,58.0,30.00,NW,313,0.0,0.0,100,0.00,,FEW,0.00,WeatherDisplay:10.37,2013-02-13 07:20:00,
2013-02-13 01:25:00,58.1,58.1,30.01,NW,313,0.0,0.0,100,0.00,,FEW,0.00,WeatherDisplay:10.37,2013-02-13 07:25:00,
2013-02-13 01:30:00,58.1,58.1,30.01,NW,313,0.0,0.0,100,0.00,,FEW,0.00,WeatherDisplay:10.37,2013-02-13 07:30:00,
2013-02-13 01:35:00,58.0,58.0,30.00,NW,313,0.0,0.0,100,0.00,,FEW,0.00,WeatherDisplay:10.37,2013-02-13 07:35:00,
2013-02-13 01:40:00,57.8,57.8,30.00,NW,312,0.0,0.0,100,0.00,,FEW,0.00,WeatherDisplay:10.37,2013-02-13 07:40:00,
2013-02-13 01:45:00,57.8,57.8,29.99,NW,313,0.0,0.0,100,0.00,,FEW,0.00,WeatherDisplay:10.37,2013-02-13 07:45:00,
2013-02-13 01:50:00,58.0,58.0,30.00,NW,313,0.0,0.0,100,0.00,,FEW,0.00,WeatherDisplay:10.37,2013-02-13 07:50:00,
2013-02-13 01:55:00,58.1,58.1,30.00,NW,313,0.0,0.0,100,0.00,,FEW,0.00,WeatherDisplay:10.37,2013-02-13 07:55:00,
2013-02-13 02:00:00,58.2,58.2,30.00,NW,314,0.1,2.3,100,0.00,,FEW,0.00,WeatherDisplay:10.37,2013-02-13 08:00:00,
2013-02-13 02:05:00,58.3,58.3,30.00,NW,314,0.0,0.0,100,0.00,,FEW,0.00,WeatherDisplay:10.37,2013-02-13 08:05:00,
2013-02-13 02:10:00,58.4,58.4,29.99,NW,314,0.0,0.0,100,0.00,,FEW,0.00,WeatherDisplay:10.37,2013-02-13 08:10:00,
2013-02-13 02:15:00,58.4,58.4,29.99,NW,314,0.0,0.0,100,0.00,,FEW,0.00,WeatherDisplay:10.37,2013-02-13 08:15:00,
2013-02-13 02:20:00,58.4,58.4,29.99,NW,313,0.0,0.0,100,0.00,,FEW,0.00,WeatherDisplay:10.37,2013-02-13 08:20:00,
2013-02-13 02:25:00,58.5,58.5,30.01,NW,311,0.0,0.0,100,0.00,,FEW,0.00,WeatherDisplay:10.37,2013-02-13 08:25:00,
2013-02-13 02:30:00,58.5,58.5,30.02,WNW,291,0.0,0.0,100,0.00,,FEW,0.00,WeatherDisplay:10.37,2013-02-13 08:30:00,
2013-02-13 02:35:00,58.5,58.5,30.03,WNW,303,0.1,2.3,100,0.00,,FEW,0.00,WeatherDisplay:10.37,2013-02-13 08:35:00,
2013-02-13 02:40:00,58.6,58.6,30.03,WNW,303,0.0,0.0,100,0.00,,FEW,0.00,WeatherDisplay:10.37,2013-02-13 08:40:00,
2013-02-13 02:45:00,58.6,58.6,30.02,North,353,0.0,0.0,100,0.00,,FEW,0.00,WeatherDisplay:10.37,2013-02-13 08:45:00,
2013-02-13 02:50:00,58.4,58.4,30.03,North,5,4.3,5.8,100,0.00,,FEW,0.00,WeatherDisplay:10.37,2013-02-13 08:50:00,
2013-02-13 02:55:00,58.1,58.1,30.03,NNW,331,0.3,2.3,100,0.00,,FEW,0.00,WeatherDisplay:10.37,2013-02-13 08:55:00,
2013-02-13 03:00:00,57.9,57.9,30.02,North,2,2.2,3.5,100,0.00,,FEW,0.00,WeatherDisplay:10.37,2013-02-13 09:00:00,
2013-02-13 03:05:00,57.7,56.3,30.02,NNW,331,3.7,5.8,95,0.00,,FEW,0.00,WeatherDisplay:10.37,2013-02-13 09:05:00,
2013-02-13 03:10:00,57.8,56.4,30.02,NE,43,4.3,4.3,95,0.00,,FEW,0.00,WeatherDisplay:10.37,2013-02-13 09:10:00,
2013-02-13 03:15:00,57.9,56.2,30.02,NNW,343,0.3,3.8,94,0.00,,FEW,0.00,WeatherDisplay:10.37,2013-02-13 09:15:00,
2013-02-13 03:20:00,58.2,56.5,30.03,NE,54,2.6,5.6,94,0.00,,FEW,0.00,WeatherDisplay:10.37,2013-02-13 09:20:00,
2013-02-13 03:25:00,58.5,56.8,30.03,NE,47,5.9,9.2,94,0.00,,FEW,0.00,WeatherDisplay:10.37,2013-02-13 09:25:00,
2013-02-13 03:33:00,58.7,57.0,30.03,NE,47,7.5,8.1,94,0.00,,FEW,0.00,WeatherDisplay:10.37,2013-02-13 09:33:00,
2013-02-13 03:38:00,58.7,56.7,30.03,NE,49,4.2,11.5,93,0.00,,FEW,0.00,WeatherDisplay:10.37,2013-02-13 09:38:00,
2013-02-13 03:43:00,58.6,56.6,30.03,NE,45,2.5,3.5,93,0.00,,FEW,0.00,WeatherDisplay:10.37,2013-02-13 09:43:00,
2013-02-13 03:48:00,58.6,56.3,30.03,North,355,5.9,11.5,92,0.00,,FEW,0.00,WeatherDisplay:10.37,2013-02-13 09:48:00,
2013-02-13 03:53:00,58.6,56.0,30.03,NNW,329,0.1,8.1,91,0.00,,FEW,0.00,WeatherDisplay:10.37,2013-02-13 09:53:00,
2013-02-13 03:58:00,58.5,55.6,30.03,NNW,346,6.0,17.3,90,0.00,,FEW,0.00,WeatherDisplay:10.37,2013-02-13 09:58:00,
2013-02-13 04:03:00,58.5,55.6,30.04,North,356,3.9,8.1,90,0.00,,FEW,0.00,WeatherDisplay:10.37,2013-02-13 10:03:00,
2013-02-13 04:08:00,58.6,55.7,30.05,NNE,32,6.9,8.1,90,0.00,,FEW,0.00,WeatherDisplay:10.37,2013-02-13 10:08:00,
2013-02-13 04:13:00,58.7,55.5,30.06,North,2,6.9,6.9,89,0.00,,FEW,0.00,WeatherDisplay:10.37,2013-02-13 10:13:00,
2013-02-13 04:18:00,58.7,55.5,30.06,NE,47,10.1,11.5,89,0.00,,FEW,0.00,WeatherDisplay:10.37,2013-02-13 10:18:00,
2013-02-13 04:23:00,58.7,55.5,30.05,NE,38,2.6,3.5,89,0.00,,FEW,0.00,WeatherDisplay:10.37,2013-02-13 10:23:00,
2013-02-13 04:28:00,58.6,55.1,30.05,NNE,32,5.4,5.8,88,0.00,,FEW,0.00,WeatherDisplay:10.37,2013-02-13 10:28:00,
2013-02-13 04:33:00,58.5,55.0,30.05,NE,53,9.2,9.2,88,0.00,,FEW,0.00,WeatherDisplay:10.37,2013-02-13 10:33:00,
2013-02-13 04:38:00,58.4,54.9,30.04,NE,53,6.4,6.4,88,0.00,,FEW,0.00,WeatherDisplay:10.37,2013-02-13 10:38:00,
2013-02-13 04:43:00,58.3,54.4,30.04,ESE,104,4.5,12.7,87,0.00,,FEW,0.00,WeatherDisplay:10.37,2013-02-13 10:43:00,
2013-02-13 04:48:00,58.2,54.3,30.05,NE,47,1.1,2.3,87,0.00,,FEW,0.00,WeatherDisplay:10.37,2013-02-13 10:48:00,
2013-02-13 04:53:00,58.2,54.7,30.05,North,356,8.1,8.1,88,0.00,,FEW,0.00,WeatherDisplay:10.37,2013-02-13 10:53:00,
2013-02-13 04:58:00,58.1,54.2,30.06,North,358,6.1,8.1,87,0.00,,FEW,0.00,WeatherDisplay:10.37,2013-02-13 10:58:00,
2013-02-13 05:03:00,58.1,54.2,30.05,North,353,2.6,7.5,87,0.00,,FEW,0.00,WeatherDisplay:10.37,2013-02-13 11:03:00,
2013-02-13 05:08:00,58.1,54.2,30.04,NE,42,7.5,8.1,87,0.00,,FEW,0.00,WeatherDisplay:10.37,2013-02-13 11:08:00,
2013-02-13 05:13:00,57.9,54.1,30.04,East,85,3.7,8.1,87,0.00,,FEW,0.00,WeatherDisplay:10.37,2013-02-13 11:13:00,
2013-02-13 05:18:00,57.7,53.5,30.05,NNE,33,5.5,5.8,86,0.00,,FEW,0.00,WeatherDisplay:10.37,2013-02-13 11:18:00,
2013-02-13 05:23:00,57.6,53.4,30.05,North,353,3.9,3.9,86,0.00,,FEW,0.00,WeatherDisplay:10.37,2013-02-13 11:23:00,
2013-02-13 05:28:00,57.5,53.0,30.06,NE,45,4.3,5.8,85,0.00,,FEW,0.00,WeatherDisplay:10.37,2013-02-13 11:28:00,
2013-02-13 05:33:00,57.3,52.5,30.06,NE,45,7.0,8.1,84,0.00,,FEW,0.00,WeatherDisplay:10.37,2013-02-13 11:33:00,
2013-02-13 05:38:00,57.2,52.4,30.06,NNE,33,3.2,3.5,84,0.00,,FEW,0.00,WeatherDisplay:10.37,2013-02-13 11:38:00,
2013-02-13 05:43:00,57.2,52.4,30.06,North,1,7.1,11.3,84,0.00,,FEW,0.00,WeatherDisplay:10.37,2013-02-13 11:43:00,
2013-02-13 05:48:00,57.0,52.2,30.06,ENE,69,11.0,11.0,84,0.00,,FEW,0.00,WeatherDisplay:10.37,2013-02-13 11:48:00,
2013-02-13 05:53:00,56.8,52.3,30.06,SSE,151,1.3,2.3,85,0.00,,FEW,0.00,WeatherDisplay:10.37,2013-02-13 11:53:00,
2013-02-13 05:58:00,56.6,51.5,30.07,NNW,345,10.6,10.6,83,0.00,,FEW,0.00,WeatherDisplay:10.37,2013-02-13 11:58:00,
2013-02-13 06:03:00,55.8,50.1,30.07,NNW,327,7.3,7.3,81,0.00,,FEW,0.00,WeatherDisplay:10.37,2013-02-13 12:03:00,
2013-02-13 06:08:00,55.1,48.0,30.08,North,354,10.7,15.0,77,0.00,,FEW,0.00,WeatherDisplay:10.37,2013-02-13 12:08:00,
2013-02-13 06:13:00,54.7,47.6,30.08,NNW,341,6.5,8.1,77,0.00,,FEW,0.00,WeatherDisplay:10.37,2013-02-13 12:13:00,
2013-02-13 06:18:00,54.3,46.9,30.09,NNW,328,11.8,11.8,76,0.00,,FEW,0.00,WeatherDisplay:10.37,2013-02-13 12:18:00,
2013-02-13 06:23:00,54.0,47.0,30.09,North,353,3.8,3.8,77,0.00,,FEW,0.00,WeatherDisplay:10.37,2013-02-13 12:23:00,
2013-02-13 06:28:00,53.7,47.0,30.09,ENE,66,5.5,9.2,78,0.00,,FEW,0.00,WeatherDisplay:10.37,2013-02-13 12:28:00,
2013-02-13 06:33:00,53.5,46.5,30.08,NNW,345,4.6,4.6,77,0.00,,FEW,0.00,WeatherDisplay:10.37,2013-02-13 12:33:00,
2013-02-13 06:38:00,53.2,46.2,30.09,NE,47,1.1,3.5,77,0.00,,FEW,0.00,WeatherDisplay:10.37,2013-02-13 12:38:00,
2013-02-13 06:43:00,53.0,46.3,30.09,North,5,5.3,9.2,78,0.00,,FEW,0.00,WeatherDisplay:10.37,2013-02-13 12:43:00,
2013-02-13 06:48:00,52.9,46.2,30.10,NNW,343,2.8,3.5,78,0.00,,FEW,0.00,WeatherDisplay:10.37,2013-02-13 12:48:00,
2013-02-13 06:53:00,52.8,46.1,30.10,ENE,60,9.4,9.4,78,0.00,,FEW,0.00,WeatherDisplay:10.37,2013-02-13 12:53:00,
2013-02-13 06:58:00,52.7,45.7,30.10,ESE,102,6.3,11.5,77,0.00,,FEW,0.00,WeatherDisplay:10.37,2013-02-13 12:58:00,
2013-02-13 07:03:00,52.6,45.2,30.09,NNE,14,10.0,10.0,76,0.00,CLR,FEW,0.00,WeatherDisplay:10.37,2013-02-13 13:03:00,
2013-02-13 07:08:00,52.5,45.5,30.10,North,5,9.1,9.1,77,0.00,CLR,FEW,0.00,WeatherDisplay:10.37,2013-02-13 13:08:00,
2013-02-13 07:13:00,52.4,45.4,30.11,NE,52,4.5,4.5,77,0.00,CLR,FEW,0.00,WeatherDisplay:10.37,2013-02-13 13:13:00,
2013-02-13 07:18:00,52.3,45.3,30.11,NNW,336,2.2,5.8,77,0.00,CLR,FEW,0.00,WeatherDisplay:10.37,2013-02-13 13:18:00,
2013-02-13 07:23:00,52.1,44.8,30.11,ENE,73,1.5,5.6,76,0.00,CLR,FEW,0.00,WeatherDisplay:10.37,2013-02-13 13:23:00,
2013-02-13 07:28:00,51.9,44.2,30.11,NNW,348,7.2,7.2,75,0.00,CLR,FEW,0.00,WeatherDisplay:10.37,2013-02-13 13:28:00,
2013-02-13 07:33:00,51.9,43.9,30.11,North,7,8.4,9.2,74,0.00,CLR,FEW,0.00,WeatherDisplay:10.37,2013-02-13 13:33:00,
2013-02-13 07:38:00,51.8,43.4,30.12,NE,41,6.8,8.1,73,0.00,CLR,FEW,0.00,WeatherDisplay:10.37,2013-02-13 13:38:00,
2013-02-13 07:43:00,51.8,43.8,30.11,NNW,345,7.1,12.7,74,0.00,CLR,FEW,0.00,WeatherDisplay:10.37,2013-02-13 13:43:00,
2013-02-13 07:48:00,51.8,43.4,30.11,ENE,60,14.1,15.0,73,0.00,CLR,FEW,0.00,WeatherDisplay:10.37,2013-02-13 13:48:00,
2013-02-13 07:53:00,51.8,43.1,30.11,NE,56,8.6,8.6,72,0.00,CLR,FEW,0.00,WeatherDisplay:10.37,2013-02-13 13:53:00,
2013-02-13 07:58:00,51.7,42.6,30.11,NE,39,7.9,7.9,71,0.00,CLR,FEW,0.00,WeatherDisplay:10.37,2013-02-13 13:58:00,
2013-02-13 08:03:00,51.5,42.4,30.12,NE,42,12.6,12.6,71,0.00,CLR,FEW,0.00,WeatherDisplay:10.37,2013-02-13 14:03:00,
2013-02-13 08:08:00,51.4,42.7,30.12,North,7,7.3,7.3,72,0.00,CLR,FEW,0.00,WeatherDisplay:10.37,2013-02-13 14:08:00,
2013-02-13 08:13:00,51.3,42.9,30.12,NNE,24,10.9,10.9,73,0.00,CLR,FEW,0.00,WeatherDisplay:10.37,2013-02-13 14:13:00,
2013-02-13 08:18:00,51.2,43.2,30.12,NE,45,5.9,8.1,74,0.00,CLR,FEW,0.00,WeatherDisplay:10.37,2013-02-13 14:18:00,
2013-02-13 08:23:00,51.2,42.5,30.12,North,7,15.2,17.3,72,0.00,CLR,FEW,0.00,WeatherDisplay:10.37,2013-02-13 14:23:00,
2013-02-13 08:28:00,51.2,42.5,30.13,North,5,6.5,9.2,72,0.00,CLR,FEW,0.00,WeatherDisplay:10.37,2013-02-13 14:28:00,
2013-02-13 08:33:00,51.2,42.1,30.13,North,358,9.9,9.9,71,0.00,CLR,FEW,0.00,WeatherDisplay:10.37,2013-02-13 14:33:00,
2013-02-13 08:38:00,51.2,42.1,30.13,NNE,32,5.9,5.9,71,0.00,CLR,FEW,0.00,WeatherDisplay:10.37,2013-02-13 14:38:00,
2013-02-13 08:43:00,51.2,42.1,30.14,NNE,33,9.0,9.0,71,0.00,CLR,FEW,0.00,WeatherDisplay:10.37,2013-02-13 14:43:00,
2013-02-13 08:48:00,51.1,41.7,30.15,ENE,76,5.7,9.2,70,0.00,CLR,FEW,0.00,WeatherDisplay:10.37,2013-02-13 14:48:00,
2013-02-13 08:53:00,51.0,41.9,30.15,North,1,7.6,8.1,71,0.00,CLR,FEW,0.00,WeatherDisplay:10.37,2013-02-13 14:53:00,
2013-02-13 08:58:00,51.1,42.4,30.16,NNW,337,2.8,8.1,72,0.00,CLR,FEW,0.00,WeatherDisplay:10.37,2013-02-13 14:58:00,
2013-02-13 09:03:00,51.0,42.3,30.16,NNE,19,4.8,4.8,72,0.00,CLR,FEW,0.00,WeatherDisplay:10.37,2013-02-13 15:03:00,
2013-02-13 09:08:00,51.1,42.4,30.17,NW,316,4.1,4.1,72,0.00,CLR,FEW,0.00,WeatherDisplay:10.37,2013-02-13 15:08:00,
2013-02-13 09:13:00,51.1,42.4,30.17,NE,56,3.8,8.1,72,0.00,CLR,FEW,0.00,WeatherDisplay:10.37,2013-02-13 15:13:00,
2013-02-13 09:18:00,51.1,42.0,30.16,NNW,329,6.5,6.5,71,0.00,CLR,FEW,0.00,WeatherDisplay:10.37,2013-02-13 15:18:00,
2013-02-13 09:23:00,51.1,41.7,30.16,NNW,348,10.9,11.5,70,0.00,CLR,FEW,0.00,WeatherDisplay:10.37,2013-02-13 15:23:00,
2013-02-13 09:28:00,51.1,42.0,30.17,North,357,8.3,11.5,71,0.00,CLR,FEW,0.00,WeatherDisplay:10.37,2013-02-13 15:28:00,
2013-02-13 09:33:00,51.2,42.1,30.17,North,5,12.3,12.7,71,0.00,CLR,FEW,0.00,WeatherDisplay:10.37,2013-02-13 15:33:00,
2013-02-13 09:38:00,51.0,41.9,30.17,North,3,3.8,5.8,71,0.00,CLR,FEW,0.00,WeatherDisplay:10.37,2013-02-13 15:38:00,
2013-02-13 09:43:00,51.0,41.9,30.17,NW,320,6.3,11.5,71,0.00,CLR,FEW,0.00,WeatherDisplay:10.37,2013-02-13 15:43:00,
2013-02-13 09:48:00,51.1,42.4,30.18,NNW,348,3.2,3.8,72,0.00,CLR,FEW,0.00,WeatherDisplay:10.37,2013-02-13 15:48:00,
2013-02-13 09:53:00,51.0,41.6,30.18,North,9,7.9,7.9,70,0.00,CLR,FEW,0.00,WeatherDisplay:10.37,2013-02-13 15:53:00,
2013-02-13 09:58:00,51.0,41.9,30.18,East,98,2.7,5.8,71,0.00,CLR,FEW,0.00,WeatherDisplay:10.37,2013-02-13 15:58:00,
2013-02-13 10:03:00,51.0,41.9,30.18,ENE,78,0.5,3.5,71,0.00,CLR,FEW,0.00,WeatherDisplay:10.37,2013-02-13 16:03:00,
2013-02-13 10:08:00,51.3,41.8,30.18,NNE,21,10.6,10.6,70,0.00,CLR,FEW,0.00,WeatherDisplay:10.37,2013-02-13 16:08:00,
2013-02-13 10:13:00,51.3,41.8,30.18,NNE,33,8.0,8.0,70,0.00,CLR,FEW,0.00,WeatherDisplay:10.37,2013-02-13 16:13:00,
2013-02-13 10:18:00,51.5,41.7,30.18,NE,43,9.6,9.6,69,0.00,CLR,FEW,0.00,WeatherDisplay:10.37,2013-02-13 16:18:00,
2013-02-13 10:23:00,52.0,42.5,30.18,NNW,329,6.7,8.1,70,0.00,CLR,FEW,0.00,WeatherDisplay:10.37,2013-02-13 16:23:00,
2013-02-13 10:28:00,52.4,42.9,30.19,ENE,60,7.2,7.2,70,0.00,CLR,FEW,0.00,WeatherDisplay:10.37,2013-02-13 16:28:00,
2013-02-13 10:33:00,52.4,42.9,30.19,North,358,4.6,5.8,70,0.00,CLR,FEW,0.00,WeatherDisplay:10.37,2013-02-13 16:33:00,
2013-02-13 10:38:00,52.5,43.4,30.19,NNW,332,6.8,6.8,71,0.00,CLR,FEW,0.00,WeatherDisplay:10.37,2013-02-13 16:38:00,
2013-02-13 10:43:00,52.7,43.6,30.18,NNW,341,3.2,5.8,71,0.00,CLR,FEW,0.00,WeatherDisplay:10.37,2013-02-13 16:43:00,
2013-02-13 10:48:00,53.3,43.8,30.19,NNE,21,5.9,8.1,70,0.00,CLR,FEW,0.00,WeatherDisplay:10.37,2013-02-13 16:48:00,
2013-02-13 10:53:00,53.3,43.4,30.19,NNW,348,5.6,5.8,69,0.00,CLR,FEW,0.00,WeatherDisplay:10.37,2013-02-13 16:53:00,
2013-02-13 10:58:00,53.3,43.0,30.19,ENE,61,7.7,9.4,68,0.00,CLR,FEW,0.00,WeatherDisplay:10.37,2013-02-13 16:58:00,
2013-02-13 11:03:00,53.2,42.9,30.19,North,353,3.0,3.0,68,0.00,CLR,FEW,0.00,WeatherDisplay:10.37,2013-02-13 17:03:00,
2013-02-13 11:08:00,53.3,43.0,30.19,North,350,2.8,3.5,68,0.00,CLR,FEW,0.00,WeatherDisplay:10.37,2013-02-13 17:08:00,
2013-02-13 11:13:00,53.2,42.9,30.19,NW,316,6.1,6.1,68,0.00,CLR,FEW,0.00,WeatherDisplay:10.37,2013-02-13 17:13:00,
2013-02-13 11:18:00,52.9,42.2,30.19,North,10,6.1,6.1,67,0.00,CLR,FEW,0.00,WeatherDisplay:10.37,2013-02-13 17:18:00,
2013-02-13 11:23:00,52.7,42.4,30.19,NNE,24,1.2,3.5,68,0.00,CLR,FEW,0.00,WeatherDisplay:10.37,2013-02-13 17:23:00,
2013-02-13 11:28:00,53.1,42.8,30.18,North,360,1.1,2.3,68,0.00,CLR,FEW,0.00,WeatherDisplay:10.37,2013-02-13 17:28:00,
2013-02-13 11:33:00,53.3,42.6,30.18,NNE,33,5.7,5.8,67,0.00,CLR,FEW,0.00,WeatherDisplay:10.37,2013-02-13 17:33:00,
2013-02-13 11:38:00,53.3,42.2,30.18,North,2,6.1,6.1,66,0.00,CLR,FEW,0.00,WeatherDisplay:10.37,2013-02-13 17:38:00,
2013-02-13 11:43:00,53.3,42.6,30.17,North,353,0.3,2.3,67,0.00,CLR,FEW,0.00,WeatherDisplay:10.37,2013-02-13 17:43:00,
2013-02-13 11:48:00,53.4,42.3,30.17,North,357,7.1,8.1,66,0.00,CLR,FEW,0.00,WeatherDisplay:10.37,2013-02-13 17:48:00,
2013-02-13 11:53:00,53.7,42.6,30.17,North,354,3.4,3.5,66,0.00,CLR,FEW,0.00,WeatherDisplay:10.37,2013-02-13 17:53:00,
2013-02-13 11:58:00,54.2,42.7,30.17,NE,51,6.8,8.1,65,0.00,CLR,FEW,0.00,WeatherDisplay:10.37,2013-02-13 17:58:00,
2013-02-13 12:03:00,54.3,42.4,30.17,NNW,339,4.5,5.8,64,0.00,,FEW,0.00,WeatherDisplay:10.37,2013-02-13 18:03:00,
2013-02-13 12:08:00,54.5,43.0,30.17,NNE,25,3.7,5.8,65,0.00,,FEW,0.00,WeatherDisplay:10.37,2013-02-13 18:08:00,
2013-02-13 12:13:00,54.8,43.3,30.17,NE,54,2.6,3.5,65,0.00,,FEW,0.00,WeatherDisplay:10.37,2013-02-13 18:13:00,
2013-02-13 12:18:00,55.3,43.3,30.16,North,357,1.3,3.8,64,0.00,,FEW,0.00,WeatherDisplay:10.37,2013-02-13 18:18:00,
2013-02-13 12:23:00,55.9,43.5,30.16,SE,130,3.2,8.1,63,0.00,,FEW,0.00,WeatherDisplay:10.37,2013-02-13 18:23:00,
2013-02-13 12:28:00,56.1,42.8,30.16,NNE,17,4.3,5.8,61,0.00,,FEW,0.00,WeatherDisplay:10.37,2013-02-13 18:28:00,
2013-02-13 12:33:00,56.5,43.2,30.16,NNE,13,2.5,3.5,61,0.00,,FEW,0.00,WeatherDisplay:10.37,2013-02-13 18:33:00,
2013-02-13 12:38:00,57.1,43.8,30.15,North,354,3.7,3.7,61,0.00,,FEW,0.00,WeatherDisplay:10.37,2013-02-13 18:38:00,
2013-02-13 12:43:00,57.6,44.2,30.15,NNE,18,3.2,5.8,61,0.00,,FEW,0.00,WeatherDisplay:10.37,2013-02-13 18:43:00,
2013-02-13 12:48:00,57.4,43.6,30.15,ENE,60,6.3,6.3,60,0.00,,FEW,0.00,WeatherDisplay:10.37,2013-02-13 18:48:00,
2013-02-13 12:53:00,57.5,43.7,30.14,NW,311,4.4,4.4,60,0.00,,FEW,0.00,WeatherDisplay:10.37,2013-02-13 18:53:00,
2013-02-13 12:58:00,57.6,44.2,30.14,NNW,329,1.3,3.5,61,0.00,,FEW,0.00,WeatherDisplay:10.37,2013-02-13 18:58:00,
2013-02-13 13:03:00,57.7,43.9,30.14,NE,45,2.2,2.3,60,0.00,,FEW,0.00,WeatherDisplay:10.37,2013-02-13 19:03:00,
2013-02-13 13:08:00,58.0,44.2,30.13,East,87,0.5,5.8,60,0.00,,FEW,0.00,WeatherDisplay:10.37,2013-02-13 19:08:00,
2013-02-13 13:13:00,58.0,44.2,30.13,ENE,64,5.0,8.1,60,0.00,,FEW,0.00,WeatherDisplay:10.37,2013-02-13 19:13:00,
2013-02-13 13:18:00,58.0,42.8,30.12,North,356,6.3,6.3,57,0.00,,FEW,0.00,WeatherDisplay:10.37,2013-02-13 19:18:00,
2013-02-13 13:23:00,58.0,42.4,30.12,NNE,24,6.4,6.4,56,0.00,,FEW,0.00,WeatherDisplay:10.37,2013-02-13 19:23:00,
2013-02-13 13:28:00,58.5,42.8,30.12,East,83,2.4,5.8,56,0.00,,FEW,0.00,WeatherDisplay:10.37,2013-02-13 19:28:00,
2013-02-13 13:33:00,59.2,43.0,30.12,NNW,330,6.2,6.2,55,0.00,,FEW,0.00,WeatherDisplay:10.37,2013-02-13 19:33:00,
2013-02-13 13:38:00,59.2,43.5,30.11,North,3,7.6,7.6,56,0.00,,FEW,0.00,WeatherDisplay:10.37,2013-02-13 19:38:00,
2013-02-13 13:43:00,58.7,43.5,30.11,North,354,8.2,9.2,57,0.00,,FEW,0.00,WeatherDisplay:10.37,2013-02-13 19:43:00,
2013-02-13 13:48:00,58.7,44.0,30.11,East,99,0.6,3.5,58,0.00,,FEW,0.00,WeatherDisplay:10.37,2013-02-13 19:48:00,
2013-02-13 13:53:00,59.1,44.3,30.11,NNW,345,1.5,2.3,58,0.00,,FEW,0.00,WeatherDisplay:10.37,2013-02-13 19:53:00,
2013-02-13 13:58:00,58.7,44.0,30.10,NW,309,1.5,5.8,58,0.00,,FEW,0.00,WeatherDisplay:10.37,2013-02-13 19:58:00,
2013-02-13 14:03:00,58.8,44.9,30.10,NNW,348,1.1,2.3,60,0.00,,FEW,0.00,WeatherDisplay:10.37,2013-02-13 20:03:00,
2013-02-13 14:08:00,59.2,44.9,30.10,NNE,29,0.4,3.5,59,0.00,,FEW,0.00,WeatherDisplay:10.37,2013-02-13 20:08:00,
2013-02-13 14:13:00,59.4,44.2,30.10,NNW,337,5.0,5.0,57,0.00,,FEW,0.00,WeatherDisplay:10.37,2013-02-13 20:13:00,
2013-02-13 14:18:00,59.8,44.5,30.09,NNW,346,6.0,9.2,57,0.00,,FEW,0.00,WeatherDisplay:10.37,2013-02-13 20:18:00,
2013-02-13 14:23:00,60.3,45.0,30.09,NNW,335,1.7,3.5,57,0.00,,FEW,0.00,WeatherDisplay:10.37,2013-02-13 20:23:00,
2013-02-13 14:28:00,60.7,44.4,30.09,NNW,336,5.4,5.4,55,0.00,,FEW,0.00,WeatherDisplay:10.37,2013-02-13 20:28:00,
2013-02-13 14:33:00,60.8,44.5,30.09,NNE,33,0.3,0.0,55,0.00,,FEW,0.00,WeatherDisplay:10.37,2013-02-13 20:33:00,
2013-02-13 14:38:00,61.0,44.7,30.08,WNW,282,3.8,11.5,55,0.00,,FEW,0.00,WeatherDisplay:10.37,2013-02-13 20:38:00,
2013-02-13 14:43:00,61.2,44.9,30.08,NE,43,2.1,3.8,55,0.00,,FEW,0.00,WeatherDisplay:10.37,2013-02-13 20:43:00,
2013-02-13 14:48:00,61.4,44.1,30.08,NNW,329,2.5,3.5,53,0.00,,FEW,0.00,WeatherDisplay:10.37,2013-02-13 20:48:00,
2013-02-13 14:53:00,61.7,44.9,30.08,NE,47,1.3,2.3,54,0.00,,FEW,0.00,WeatherDisplay:10.37,2013-02-13 20:53:00,
2013-02-13 14:58:00,62.2,44.9,30.07,NNW,343,1.9,2.3,53,0.00,,FEW,0.00,WeatherDisplay:10.37,2013-02-13 20:58:00,
2013-02-13 15:03:00,61.9,44.6,30.07,NNE,17,1.1,2.3,53,0.00,,FEW,0.00,WeatherDisplay:10.37,2013-02-13 21:03:00,
2013-02-13 15:08:00,61.8,44.5,30.07,NE,50,0.7,5.8,53,0.00,,FEW,0.00,WeatherDisplay:10.37,2013-02-13 21:08:00,
2013-02-13 15:13:00,62.0,44.7,30.07,NNW,348,4.2,5.8,53,0.00,,FEW,0.00,WeatherDisplay:10.37,2013-02-13 21:13:00,
2013-02-13 15:18:00,62.0,43.7,30.06,NNW,343,4.6,5.8,51,0.00,,FEW,0.00,WeatherDisplay:10.37,2013-02-13 21:18:00,
2013-02-13 15:23:00,62.1,44.8,30.06,NW,320,1.4,2.3,53,0.00,,FEW,0.00,WeatherDisplay:10.37,2013-02-13 21:23:00,
2013-02-13 15:28:00,62.4,44.5,30.06,NE,43,3.7,3.7,52,0.00,,FEW,0.00,WeatherDisplay:10.37,2013-02-13 21:28:00,
2013-02-13 15:33:00,62.4,44.5,30.06,NNW,331,0.5,2.3,52,0.00,,FEW,0.00,WeatherDisplay:10.37,2013-02-13 21:33:00,
2013-02-13 15:38:00,62.2,44.9,30.06,ENE,59,1.6,3.5,53,0.00,,FEW,0.00,WeatherDisplay:10.37,2013-02-13 21:38:00,
2013-02-13 15:43:00,62.4,44.0,30.06,NNE,33,3.0,3.5,51,0.00,,FEW,0.00,WeatherDisplay:10.37,2013-02-13 21:43:00,
2013-02-13 15:48:00,62.6,44.2,30.05,East,79,0.9,3.5,51,0.00,,FEW,0.00,WeatherDisplay:10.37,2013-02-13 21:48:00,
2013-02-13 15:53:00,62.8,44.4,30.05,NNW,339,0.0,2.3,51,0.00,,FEW,0.00,WeatherDisplay:10.37,2013-02-13 21:53:00,
2013-02-13 15:58:00,63.2,44.2,30.05,ENE,59,2.1,3.5,50,0.00,,FEW,0.00,WeatherDisplay:10.37,2013-02-13 21:58:00,
2013-02-13 16:03:00,63.2,43.2,30.06,ENE,59,1.5,2.3,48,0.00,,FEW,0.00,WeatherDisplay:10.37,2013-02-13 22:03:00,
2013-02-13 16:08:00,63.2,43.7,30.05,NNW,346,0.9,2.3,49,0.00,,FEW,0.00,WeatherDisplay:10.37,2013-02-13 22:08:00,
2013-02-13 16:13:00,63.2,43.7,30.06,North,358,0.4,3.5,49,0.00,,FEW,0.00,WeatherDisplay:10.37,2013-02-13 22:13:00,
2013-02-13 16:18:00,63.0,43.5,30.05,ENE,77,0.2,3.5,49,0.00,,FEW,0.00,WeatherDisplay:10.37,2013-02-13 22:18:00,
2013-02-13 16:23:00,63.1,43.6,30.06,NE,42,0.0,2.3,49,0.00,,FEW,0.00,WeatherDisplay:10.37,2013-02-13 22:23:00,
2013-02-13 16:28:00,63.0,46.6,30.06,ESE,120,0.5,2.1,55,0.00,,FEW,0.00,WeatherDisplay:10.37,2013-02-13 22:28:00,
2013-02-13 16:33:00,62.5,46.6,30.05,East,90,0.4,1.1,56,0.00,,FEW,0.00,WeatherDisplay:10.37,2013-02-13 22:33:00,
2013-02-13 16:38:00,62.1,46.7,30.05,East,98,2.0,4.6,57,0.00,,FEW,0.00,WeatherDisplay:10.37,2013-02-13 22:38:00,
2013-02-13 16:43:00,62.2,43.8,30.05,NNW,331,0.7,2.3,51,0.00,,FEW,0.00,WeatherDisplay:10.37,2013-02-13 22:43:00,
2013-02-13 16:48:00,62.8,44.9,30.05,East,90,0.6,2.3,52,0.00,,FEW,0.00,WeatherDisplay:10.37,2013-02-13 22:48:00,
2013-02-13 16:53:00,63.1,44.2,30.05,ESE,106,0.1,0.0,50,0.00,,FEW,0.00,WeatherDisplay:10.37,2013-02-13 22:53:00,
2013-02-13 16:58:00,63.1,43.1,30.05,NNW,327,1.6,3.5,48,0.00,,FEW,0.00,WeatherDisplay:10.37,2013-02-13 22:58:00,
2013-02-13 17:03:00,63.1,44.2,30.05,North,360,0.0,1.9,50,0.00,,FEW,0.00,WeatherDisplay:10.37,2013-02-13 23:03:00,
2013-02-13 17:08:00,62.7,46.8,30.05,ESE,114,0.3,0.0,56,0.00,,FEW,0.00,WeatherDisplay:10.37,2013-02-13 23:08:00,
2013-02-13 17:13:00,62.3,45.4,30.05,SE,124,0.0,0.0,54,0.00,,FEW,0.00,WeatherDisplay:10.37,2013-02-13 23:13:00,
2013-02-13 17:18:00,62.9,43.4,30.05,NNW,331,0.0,0.0,49,0.00,,FEW,0.00,WeatherDisplay:10.37,2013-02-13 23:18:00,
2013-02-13 17:23:00,62.8,43.9,30.05,North,352,0.0,0.0,50,0.00,,FEW,0.00,WeatherDisplay:10.37,2013-02-13 23:23:00,
2013-02-13 17:28:00,62.5,45.6,30.05,ENE,66,2.7,2.7,54,0.00,,FEW,0.00,WeatherDisplay:10.37,2013-02-13 23:28:00,
2013-02-13 17:33:00,61.7,47.2,30.05,ENE,66,0.8,3.5,59,0.00,,FEW,0.00,WeatherDisplay:10.37,2013-02-13 23:33:00,
2013-02-13 17:38:00,61.1,47.1,30.05,East,100,0.1,1.1,60,0.00,,FEW,0.00,WeatherDisplay:10.37,2013-02-13 23:38:00,
2013-02-13 17:43:00,60.6,46.6,30.05,ESE,106,0.9,3.5,60,0.00,,FEW,0.00,WeatherDisplay:10.37,2013-02-13 23:43:00,
2013-02-13 17:48:00,60.1,46.6,30.05,SE,133,0.0,0.0,61,0.00,,FEW,0.00,WeatherDisplay:10.37,2013-02-13 23:48:00,
2013-02-13 17:53:00,59.8,46.7,30.05,ESE,116,0.0,0.0,62,0.00,,FEW,0.00,WeatherDisplay:10.37,2013-02-13 23:53:00,
2013-02-13 17:58:00,59.3,46.3,30.05,East,99,0.0,1.1,62,0.00,,FEW,0.00,WeatherDisplay:10.37,2013-02-13 23:58:00,
2013-02-13 18:03:00,58.7,46.5,30.05,East,99,0.0,1.1,64,0.00,,FEW,0.00,WeatherDisplay:10.37,2013-02-14 00:03:00,
2013-02-13 18:08:00,58.1,46.4,30.05,East,99,0.0,0.0,65,0.00,,FEW,0.00,WeatherDisplay:10.37,2013-02-14 00:08:00,
2013-02-13 18:13:00,57.4,46.1,30.05,East,99,0.0,0.0,66,0.00,,FEW,0.00,WeatherDisplay:10.37,2013-02-14 00:13:00,
2013-02-13 18:18:00,56.7,46.3,30.05,East,99,0.0,0.0,68,0.00,,FEW,0.00,WeatherDisplay:10.37,2013-02-14 00:18:00,
2013-02-13 18:23:00,56.1,46.4,30.05,East,99,0.0,0.0,70,0.00,,FEW,0.00,WeatherDisplay:10.37,2013-02-14 00:23:00,
2013-02-13 18:28:00,55.4,46.2,30.05,East,99,0.0,0.0,71,0.00,,FEW,0.00,WeatherDisplay:10.37,2013-02-14 00:28:00,
2013-02-13 18:33:00,54.7,45.8,30.05,East,99,0.0,0.0,72,0.00,,FEW,0.00,WeatherDisplay:10.37,2013-02-14 00:33:00,
2013-02-13 18:38:00,54.0,45.9,30.05,East,99,0.0,0.0,74,0.00,,FEW,0.00,WeatherDisplay:10.37,2013-02-14 00:38:00,
2013-02-13 18:43:00,53.4,45.7,30.05,East,99,0.0,0.0,75,0.00,,FEW,0.00,WeatherDisplay:10.37,2013-02-14 00:43:00,
2013-02-13 18:48:00,52.8,45.1,30.05,East,99,0.0,0.0,75,0.00,,FEW,0.00,WeatherDisplay:10.37,2013-02-14 00:48:00,
2013-02-13 18:53:00,52.2,44.9,30.05,East,99,0.0,0.0,76,0.00,,FEW,0.00,WeatherDisplay:10.37,2013-02-14 00:53:00,
2013-02-13 18:58:00,51.6,44.3,30.05,East,99,0.0,0.0,76,0.00,,FEW,0.00,WeatherDisplay:10.37,2013-02-14 00:58:00,
2013-02-13 19:03:00,51.2,44.6,30.05,East,99,0.0,0.0,78,0.00,,FEW,0.00,WeatherDisplay:10.37,2013-02-14 01:03:00,
2013-02-13 19:08:00,50.8,44.2,30.05,East,99,0.0,0.0,78,0.00,,FEW,0.00,WeatherDisplay:10.37,2013-02-14 01:08:00,
2013-02-13 19:13:00,50.4,44.1,30.05,East,99,0.0,0.0,79,0.00,,FEW,0.00,WeatherDisplay:10.37,2013-02-14 01:13:00,
2013-02-13 19:18:00,49.9,43.6,30.05,East,99,0.0,0.0,79,0.00,,FEW,0.00,WeatherDisplay:10.37,2013-02-14 01:18:00,
2013-02-13 19:23:00,49.4,43.2,30.06,East,99,0.0,0.0,79,0.00,,FEW,0.00,WeatherDisplay:10.37,2013-02-14 01:23:00,
2013-02-13 19:28:00,49.0,43.1,30.06,East,99,0.0,0.0,80,0.00,,FEW,0.00,WeatherDisplay:10.37,2013-02-14 01:28:00,
2013-02-13 19:33:00,48.9,43.3,30.06,East,99,0.0,0.0,81,0.00,,FEW,0.00,WeatherDisplay:10.37,2013-02-14 01:33:00,
2013-02-13 19:38:00,49.1,44.5,30.06,East,99,0.0,0.0,84,0.00,,FEW,0.00,WeatherDisplay:10.37,2013-02-14 01:38:00,
2013-02-13 19:43:00,49.3,45.0,30.06,East,99,0.0,0.0,85,0.00,,FEW,0.00,WeatherDisplay:10.37,2013-02-14 01:43:00,
2013-02-13 19:48:00,49.2,44.6,30.06,East,99,0.0,0.0,84,0.00,,FEW,0.00,WeatherDisplay:10.37,2013-02-14 01:48:00,
2013-02-13 19:53:00,49.2,45.2,30.07,East,99,0.0,0.0,86,0.00,,FEW,0.00,WeatherDisplay:10.37,2013-02-14 01:53:00,
2013-02-13 19:58:00,49.8,45.5,30.07,East,99,0.0,0.0,85,0.00,,FEW,0.00,WeatherDisplay:10.37,2013-02-14 01:58:00,
2013-02-13 20:03:00,50.4,45.7,30.07,East,99,0.0,0.0,84,0.00,,FEW,0.00,WeatherDisplay:10.37,2013-02-14 02:03:00,
2013-02-13 20:08:00,50.1,45.1,30.08,East,99,0.0,0.0,83,0.00,,FEW,0.00,WeatherDisplay:10.37,2013-02-14 02:08:00,
2013-02-13 20:13:00,49.8,45.2,30.08,East,99,0.0,0.0,84,0.00,,FEW,0.00,WeatherDisplay:10.37,2013-02-14 02:13:00,
2013-02-13 20:18:00,50.0,46.0,30.08,South,183,1.0,1.1,86,0.00,,FEW,0.00,WeatherDisplay:10.37,2013-02-14 02:18:00,
2013-02-13 20:23:00,49.9,44.9,30.08,South,184,0.0,0.0,83,0.00,,FEW,0.00,WeatherDisplay:10.37,2013-02-14 02:23:00,
2013-02-13 20:28:00,50.2,45.9,30.08,South,183,0.0,0.0,85,0.00,,FEW,0.00,WeatherDisplay:10.37,2013-02-14 02:28:00,
2013-02-13 20:33:00,50.3,45.3,30.09,South,183,0.0,0.0,83,0.00,,FEW,0.00,WeatherDisplay:10.37,2013-02-14 02:33:00,
2013-02-13 20:38:00,50.0,45.0,30.09,South,183,0.0,0.0,83,0.00,,FEW,0.00,WeatherDisplay:10.37,2013-02-14 02:38:00,
2013-02-13 20:43:00,49.8,45.5,30.09,South,184,0.0,0.0,85,0.00,,FEW,0.00,WeatherDisplay:10.37,2013-02-14 02:43:00,
2013-02-13 20:48:00,49.4,44.8,30.09,South,183,0.0,0.0,84,0.00,,FEW,0.00,WeatherDisplay:10.37,2013-02-14 02:48:00,
2013-02-13 20:53:00,49.1,44.5,30.10,South,183,0.0,0.0,84,0.00,,FEW,0.00,WeatherDisplay:10.37,2013-02-14 02:53:00,
2013-02-13 20:58:00,48.8,44.5,30.10,South,183,0.0,0.0,85,0.00,,FEW,0.00,WeatherDisplay:10.37,2013-02-14 02:58:00,
2013-02-13 21:03:00,48.4,44.1,30.10,South,183,0.0,0.0,85,0.00,CLR,FEW,0.00,WeatherDisplay:10.37,2013-02-14 03:03:00,
2013-02-13 21:08:00,48.2,44.2,30.10,South,183,0.0,0.0,86,0.00,CLR,FEW,0.00,WeatherDisplay:10.37,2013-02-14 03:08:00,
2013-02-13 21:13:00,47.8,43.8,30.10,South,183,0.0,0.0,86,0.00,CLR,FEW,0.00,WeatherDisplay:10.37,2013-02-14 03:13:00,
2013-02-13 21:18:00,47.5,43.5,30.10,South,183,0.0,0.0,86,0.00,CLR,FEW,0.00,WeatherDisplay:10.37,2013-02-14 03:18:00,
2013-02-13 21:23:00,47.2,43.2,30.10,South,183,0.0,0.0,86,0.00,CLR,FEW,0.00,WeatherDisplay:10.37,2013-02-14 03:23:00,
2013-02-13 21:28:00,47.2,43.5,30.10,South,183,0.0,0.0,87,0.00,CLR,FEW,0.00,WeatherDisplay:10.37,2013-02-14 03:28:00,
2013-02-13 21:33:00,47.3,43.6,30.10,South,183,0.0,0.0,87,0.00,CLR,FEW,0.00,WeatherDisplay:10.37,2013-02-14 03:33:00,
2013-02-13 21:38:00,47.3,43.6,30.11,South,183,0.0,0.0,87,0.00,CLR,FEW,0.00,WeatherDisplay:10.37,2013-02-14 03:38:00,
2013-02-13 21:43:00,47.2,43.5,30.11,South,184,0.0,0.0,87,0.00,CLR,FEW,0.00,WeatherDisplay:10.37,2013-02-14 03:43:00,
2013-02-13 21:48:00,47.2,43.5,30.11,South,183,0.0,0.0,87,0.00,CLR,FEW,0.00,WeatherDisplay:10.37,2013-02-14 03:48:00,
2013-02-13 21:53:00,47.6,43.9,30.11,South,183,0.0,0.0,87,0.00,CLR,FEW,0.00,WeatherDisplay:10.37,2013-02-14 03:53:00,
2013-02-13 21:58:00,48.0,43.7,30.11,South,183,0.0,0.0,85,0.00,CLR,FEW,0.00,WeatherDisplay:10.37,2013-02-14 03:58:00,
2013-02-13 22:03:00,48.3,43.7,30.11,South,183,0.0,0.0,84,0.00,CLR,FEW,0.00,WeatherDisplay:10.37,2013-02-14 04:03:00,
2013-02-13 22:08:00,48.4,43.8,30.11,South,183,0.0,0.0,84,0.00,CLR,FEW,0.00,WeatherDisplay:10.37,2013-02-14 04:08:00,
2013-02-13 22:13:00,48.5,43.6,30.11,South,183,0.0,0.0,83,0.00,CLR,FEW,0.00,WeatherDisplay:10.37,2013-02-14 04:13:00,
2013-02-13 22:18:00,48.4,43.5,30.11,South,184,0.0,0.0,83,0.00,CLR,FEW,0.00,WeatherDisplay:10.37,2013-02-14 04:18:00,
2013-02-13 22:23:00,48.3,43.1,30.11,South,184,0.0,0.0,82,0.00,CLR,FEW,0.00,WeatherDisplay:10.37,2013-02-14 04:23:00,
2013-02-13 22:28:00,48.2,43.3,30.11,South,184,0.0,0.0,83,0.00,CLR,FEW,0.00,WeatherDisplay:10.37,2013-02-14 04:28:00,
2013-02-13 22:33:00,48.2,43.3,30.11,South,183,0.0,0.0,83,0.00,CLR,FEW,0.00,WeatherDisplay:10.37,2013-02-14 04:33:00,
2013-02-13 22:38:00,48.3,43.4,30.11,South,183,0.0,0.0,83,0.00,CLR,FEW,0.00,WeatherDisplay:10.37,2013-02-14 04:38:00,
2013-02-13 22:43:00,48.3,43.1,30.12,South,183,0.0,0.0,82,0.00,CLR,FEW,0.00,WeatherDisplay:10.37,2013-02-14 04:43:00,
2013-02-13 22:48:00,48.2,43.0,30.12,South,183,0.0,0.0,82,0.00,CLR,FEW,0.00,WeatherDisplay:10.37,2013-02-14 04:48:00,
2013-02-13 22:53:00,48.1,42.9,30.12,South,184,0.0,0.0,82,0.00,CLR,FEW,0.00,WeatherDisplay:10.37,2013-02-14 04:53:00,
2013-02-13 22:58:00,48.0,43.1,30.12,South,183,0.0,0.0,83,0.00,CLR,FEW,0.00,WeatherDisplay:10.37,2013-02-14 04:58:00,
2013-02-13 23:00:00,48.0,43.1,30.12,South,183,0.0,0.0,83,0.00,CLR,FEW,0.00,WeatherDisplay:10.37,2013-02-14 05:00:00,
2013-02-13 23:05:00,47.9,43.0,30.12,South,183,0.0,0.0,83,0.00,CLR,FEW,0.00,WeatherDisplay:10.37,2013-02-14 05:05:00,
2013-02-13 23:10:00,48.1,43.2,30.12,South,183,0.0,0.0,83,0.00,CLR,FEW,0.00,WeatherDisplay:10.37,2013-02-14 05:10:00,
2013-02-13 23:15:00,48.2,43.3,30.12,South,183,0.0,0.0,83,0.00,CLR,FEW,0.00,WeatherDisplay:10.37,2013-02-14 05:15:00,
2013-02-13 23:20:00,48.2,43.3,30.12,South,183,0.0,0.0,83,0.00,CLR,FEW,0.00,WeatherDisplay:10.37,2013-02-14 05:20:00,
2013-02-13 23:25:00,48.1,43.5,30.12,South,183,0.0,0.0,84,0.00,CLR,FEW,0.00,WeatherDisplay:10.37,2013-02-14 05:25:00,
2013-02-13 23:30:00,48.0,43.4,30.12,South,183,0.0,0.0,84,0.00,CLR,FEW,0.00,WeatherDisplay:10.37,2013-02-14 05:30:00,
2013-02-13 23:35:00,48.1,43.8,30.12,South,183,0.0,0.0,85,0.00,CLR,FEW,0.00,WeatherDisplay:10.37,2013-02-14 05:35:00,
2013-02-13 23:40:00,48.1,43.8,30.12,South,183,0.0,0.0,85,0.00,CLR,FEW,0.00,WeatherDisplay:10.37,2013-02-14 05:40:00,
2013-02-13 23:45:00,48.1,44.1,30.12,South,183,0.0,0.0,86,0.00,CLR,FEW,0.00,WeatherDisplay:10.37,2013-02-14 05:45:00,
2013-02-13 23:50:00,48.0,44.0,30.12,South,183,0.0,0.0,86,0.00,CLR,FEW,0.00,WeatherDisplay:10.37,2013-02-14 05:50:00,
2013-02-13 23:55:00,47.8,43.8,30.12,South,183,0.0,0.0,86,0.00,CLR,FEW,0.00,WeatherDisplay:10.37,2013-02-14 05:55:00,